createdAt,value
2017-02-04T00:00:18.711Z,59.43
2017-02-04T00:00:59.363Z,59.52
2017-02-04T00:01:40.028Z,59.49
2017-02-04T00:02:20.840Z,59.33
2017-02-04T00:03:01.506Z,59.62
2017-02-04T00:03:42.168Z,59.59
2017-02-04T00:04:22.814Z,59.59
2017-02-04T00:05:03.530Z,59.49
2017-02-04T00:05:44.223Z,59.91
2017-02-04T00:06:24.946Z,59.59
2017-02-04T00:07:05.683Z,59.59
2017-02-04T00:07:46.415Z,59.52
2017-02-04T00:08:27.169Z,59.43
2017-02-04T00:09:07.823Z,59.52
2017-02-04T00:09:48.506Z,59.33
2017-02-04T00:10:29.247Z,59.3
2017-02-04T00:11:09.918Z,59.52
2017-02-04T00:11:50.589Z,59.52
2017-02-04T00:12:31.261Z,59.43
2017-02-04T00:13:11.984Z,59.49
2017-02-04T00:13:52.646Z,59.59
2017-02-04T00:14:33.354Z,59.43
2017-02-04T00:15:14.039Z,59.59
2017-02-04T00:15:54.689Z,59.59
2017-02-04T00:16:35.379Z,59.88
2017-02-04T00:17:16.037Z,59.49
2017-02-04T00:17:56.749Z,59.52
2017-02-04T00:18:37.425Z,59.52
2017-02-04T00:19:18.194Z,59.2
2017-02-04T00:19:58.997Z,59.52
2017-02-04T00:20:40.435Z,59.33
2017-02-04T00:21:21.144Z,59.49
2017-02-04T00:22:01.882Z,59.59
2017-02-04T00:22:42.587Z,59.52
2017-02-04T00:23:23.255Z,59.43
2017-02-04T00:24:03.937Z,59.43
2017-02-04T00:24:44.622Z,59.52
2017-02-04T00:25:25.270Z,59.52
2017-02-04T00:26:05.989Z,59.52
2017-02-04T00:26:46.723Z,59.62
2017-02-04T00:27:27.382Z,59.33
2017-02-04T00:28:08.040Z,59.43
2017-02-04T00:28:48.767Z,59.52
2017-02-04T00:29:29.417Z,59.33
2017-02-04T00:30:10.074Z,59.59
2017-02-04T00:30:50.723Z,59.59
2017-02-04T00:31:31.373Z,59.62
2017-02-04T00:32:12.025Z,59.62
2017-02-04T00:32:52.704Z,59.62
2017-02-04T00:33:33.439Z,59.52
2017-02-04T00:34:14.094Z,59.43
2017-02-04T00:34:54.743Z,59.33
2017-02-04T00:35:35.443Z,59.4
2017-02-04T00:36:16.238Z,59.52
2017-02-04T00:36:56.913Z,59.43
2017-02-04T00:37:37.535Z,59.59
2017-02-04T00:38:18.257Z,59.62
2017-02-04T00:38:58.961Z,59.33
2017-02-04T00:39:39.637Z,59.23
2017-02-04T00:40:20.349Z,59.81
2017-02-04T00:41:01.003Z,59.78
2017-02-04T00:41:41.660Z,59.78
2017-02-04T00:42:22.304Z,59.69
2017-02-04T00:43:03.035Z,59.81
2017-02-04T00:43:43.684Z,59.78
2017-02-04T00:44:24.372Z,59.88
2017-02-04T00:45:05.098Z,59.59
2017-02-04T00:45:45.834Z,59.72
2017-02-04T00:46:26.477Z,59.69
2017-02-04T00:47:07.130Z,59.78
2017-02-04T00:47:47.797Z,59.59
2017-02-04T00:48:28.515Z,60.07
2017-02-04T00:49:09.101Z,60.17
2017-02-04T00:49:49.790Z,60.07
2017-02-04T00:50:30.487Z,59.59
2017-02-04T00:51:11.143Z,60.2
2017-02-04T00:51:51.840Z,60.07
2017-02-04T00:52:33.078Z,59.78
2017-02-04T00:53:13.790Z,60.07
2017-02-04T00:53:54.465Z,60.27
2017-02-04T00:54:35.145Z,60.3
2017-02-04T00:55:15.837Z,60.27
2017-02-04T00:55:56.568Z,60.27
2017-02-04T00:56:37.308Z,60.07
2017-02-04T00:57:18.045Z,60.07
2017-02-04T00:57:58.690Z,60.17
2017-02-04T00:58:39.426Z,60.36
2017-02-04T00:59:20.104Z,60.36
2017-02-04T01:00:00.751Z,60.17
2017-02-04T01:00:41.472Z,60.46
2017-02-04T01:01:22.212Z,60.07
2017-02-04T01:02:02.861Z,60.65
2017-02-04T01:02:43.527Z,60.46
2017-02-04T01:03:24.230Z,60.17
2017-02-04T01:04:04.935Z,59.88
2017-02-04T01:04:45.597Z,60.07
2017-02-04T01:05:26.301Z,60.27
2017-02-04T01:06:07.033Z,60.36
2017-02-04T01:06:47.810Z,60.36
2017-02-04T01:07:28.398Z,60.27
2017-02-04T01:08:09.053Z,60.17
2017-02-04T01:08:49.840Z,60.27
2017-02-04T01:09:30.450Z,60.07
2017-02-04T01:10:11.099Z,60.27
2017-02-04T01:10:51.873Z,60.1
2017-02-04T01:11:32.517Z,60.27
2017-02-04T01:12:13.185Z,60.27
2017-02-04T01:12:53.831Z,60.17
2017-02-04T01:13:34.545Z,60.65
2017-02-04T01:14:15.205Z,60.36
2017-02-04T01:14:55.860Z,60.55
2017-02-04T01:15:36.647Z,60.27
2017-02-04T01:16:17.276Z,60.27
2017-02-04T01:16:57.995Z,60.27
2017-02-04T01:17:38.695Z,60.27
2017-02-04T01:18:19.408Z,59.97
2017-02-04T01:19:00.045Z,60.36
2017-02-04T01:19:41.326Z,60.17
2017-02-04T01:20:21.984Z,60.27
2017-02-04T01:21:02.656Z,60.17
2017-02-04T01:21:43.386Z,60.27
2017-02-04T01:22:24.055Z,60.17
2017-02-04T01:23:04.704Z,60.17
2017-02-04T01:23:45.411Z,60.27
2017-02-04T01:24:26.153Z,60.55
2017-02-04T01:25:06.812Z,60.46
2017-02-04T01:25:47.468Z,60.55
2017-02-04T01:26:28.188Z,60.07
2017-02-04T01:27:08.855Z,60.65
2017-02-04T01:27:49.504Z,60.36
2017-02-04T01:28:30.160Z,60.55
2017-02-04T01:29:10.878Z,60.17
2017-02-04T01:29:51.467Z,60.46
2017-02-04T01:30:32.176Z,60.27
2017-02-04T01:31:12.898Z,60.46
2017-02-04T01:31:53.554Z,60.55
2017-02-04T01:32:34.395Z,60.36
2017-02-04T01:33:15.111Z,60.07
2017-02-04T01:33:55.776Z,60.55
2017-02-04T01:34:36.433Z,60.46
2017-02-04T01:35:17.174Z,60.55
2017-02-04T01:35:57.954Z,60.27
2017-02-04T01:36:38.601Z,60.17
2017-02-04T01:37:19.254Z,60.27
2017-02-04T01:37:59.998Z,60.17
2017-02-04T01:38:40.692Z,60.46
2017-02-04T01:39:21.348Z,60.46
2017-02-04T01:40:02.048Z,60.55
2017-02-04T01:40:42.727Z,60.07
2017-02-04T01:41:23.427Z,60.27
2017-02-04T01:42:04.080Z,60.27
2017-02-04T01:42:44.807Z,60.07
2017-02-04T01:43:25.502Z,60.55
2017-02-04T01:44:06.150Z,60.07
2017-02-04T01:44:46.882Z,60.55
2017-02-04T01:45:27.543Z,60.07
2017-02-04T01:46:08.279Z,60.65
2017-02-04T01:46:48.960Z,60.46
2017-02-04T01:47:29.644Z,60.07
2017-02-04T01:48:10.321Z,59.97
2017-02-04T01:48:50.997Z,60.17
2017-02-04T01:49:31.644Z,59.88
2017-02-04T01:50:12.309Z,60.27
2017-02-04T01:50:52.943Z,60.17
2017-02-04T01:51:33.609Z,60.27
2017-02-04T01:52:14.314Z,60.07
2017-02-04T01:52:54.971Z,60.27
2017-02-04T01:53:35.658Z,59.97
2017-02-04T01:54:16.319Z,60.07
2017-02-04T01:54:56.966Z,60.17
2017-02-04T01:55:37.641Z,59.97
2017-02-04T01:56:18.400Z,60.17
2017-02-04T01:56:59.143Z,60.46
2017-02-04T01:57:39.794Z,60.46
2017-02-04T01:58:20.434Z,60.36
2017-02-04T01:59:01.108Z,60.07
2017-02-04T01:59:41.743Z,60.36
2017-02-04T02:00:22.397Z,60.07
2017-02-04T02:01:03.073Z,60.17
2017-02-04T02:01:43.719Z,60.27
2017-02-04T02:02:24.380Z,60.07
2017-02-04T02:03:05.064Z,60.27
2017-02-04T02:03:45.810Z,60.07
2017-02-04T02:04:26.459Z,60.27
2017-02-04T02:05:07.109Z,60.36
2017-02-04T02:05:47.790Z,60.07
2017-02-04T02:06:28.449Z,60.36
2017-02-04T02:07:09.102Z,60.75
2017-02-04T02:07:49.831Z,60.46
2017-02-04T02:08:30.567Z,60.36
2017-02-04T02:09:11.318Z,60.07
2017-02-04T02:09:51.935Z,60.07
2017-02-04T02:10:32.666Z,60.17
2017-02-04T02:11:13.405Z,59.97
2017-02-04T02:11:54.053Z,60.27
2017-02-04T02:12:34.708Z,60.27
2017-02-04T02:13:15.403Z,60.27
2017-02-04T02:13:56.102Z,60.17
2017-02-04T02:14:36.719Z,60.17
2017-02-04T02:15:17.407Z,60.46
2017-02-04T02:15:58.050Z,60.07
2017-02-04T02:16:38.713Z,60.36
2017-02-04T02:17:19.361Z,60.07
2017-02-04T02:18:00.053Z,60.17
2017-02-04T02:18:40.696Z,60.27
2017-02-04T02:19:21.348Z,60.27
2017-02-04T02:20:02.121Z,60.17
2017-02-04T02:20:42.833Z,60.46
2017-02-04T02:21:23.434Z,60.36
2017-02-04T02:22:04.111Z,60.17
2017-02-04T02:22:44.862Z,60.27
2017-02-04T02:23:25.525Z,60.46
2017-02-04T02:24:06.290Z,60.36
2017-02-04T02:24:46.941Z,60.27
2017-02-04T02:25:27.628Z,60.55
2017-02-04T02:26:08.294Z,60.17
2017-02-04T02:26:49.057Z,60.17
2017-02-04T02:27:29.800Z,60.27
2017-02-04T02:28:10.471Z,60.46
2017-02-04T02:28:51.126Z,60.17
2017-02-04T02:29:32.834Z,60.27
2017-02-04T02:30:13.531Z,60.27
2017-02-04T02:30:54.185Z,60.17
2017-02-04T02:31:34.930Z,60.46
2017-02-04T02:32:15.574Z,60.27
2017-02-04T02:32:56.250Z,59.88
2017-02-04T02:33:36.953Z,60.27
2017-02-04T02:34:17.602Z,60.27
2017-02-04T02:34:58.327Z,59.97
2017-02-04T02:35:38.985Z,60.27
2017-02-04T02:36:19.688Z,60.07
2017-02-04T02:37:00.378Z,60.27
2017-02-04T02:37:41.033Z,60.36
2017-02-04T02:38:21.731Z,60.17
2017-02-04T02:39:02.442Z,60.27
2017-02-04T02:39:43.138Z,60.36
2017-02-04T02:40:23.782Z,60.17
2017-02-04T02:41:04.515Z,60.36
2017-02-04T02:41:45.197Z,60.07
2017-02-04T02:42:25.881Z,60.07
2017-02-04T02:43:06.608Z,60.27
2017-02-04T02:43:47.276Z,60.07
2017-02-04T02:44:27.935Z,60.27
2017-02-04T02:45:08.593Z,60.46
2017-02-04T02:45:49.244Z,60.27
2017-02-04T02:46:29.921Z,60.36
2017-02-04T02:47:10.601Z,60.36
2017-02-04T02:47:51.314Z,60.46
2017-02-04T02:48:32.106Z,60.36
2017-02-04T02:49:12.763Z,60.65
2017-02-04T02:49:53.434Z,60.46
2017-02-04T02:50:34.119Z,60.17
2017-02-04T02:51:14.768Z,60.07
2017-02-04T02:51:55.426Z,59.88
2017-02-04T02:52:36.083Z,60.07
2017-02-04T02:53:16.736Z,59.97
2017-02-04T02:53:57.396Z,60.36
2017-02-04T02:54:38.050Z,59.97
2017-02-04T02:55:18.766Z,60.27
2017-02-04T02:55:59.426Z,60.27
2017-02-04T02:56:40.080Z,60.46
2017-02-04T02:57:20.738Z,60.17
2017-02-04T02:58:01.386Z,60.65
2017-02-04T02:58:42.058Z,60.46
2017-02-04T02:59:22.746Z,60.46
2017-02-04T03:00:03.543Z,60.46
2017-02-04T03:00:44.152Z,60.75
2017-02-04T03:01:24.805Z,60.46
2017-02-04T03:02:05.474Z,60.46
2017-02-04T03:02:46.222Z,60.65
2017-02-04T03:03:26.895Z,60.75
2017-02-04T03:04:07.549Z,61.04
2017-02-04T03:04:48.294Z,60.55
2017-02-04T03:05:28.984Z,60.17
2017-02-04T03:06:09.641Z,60.65
2017-02-04T03:06:51.285Z,60.65
2017-02-04T03:07:32.025Z,60.27
2017-02-04T03:08:12.693Z,60.27
2017-02-04T03:08:53.396Z,60.36
2017-02-04T03:09:34.095Z,60.36
2017-02-04T03:10:14.800Z,60.65
2017-02-04T03:10:55.432Z,59.97
2017-02-04T03:11:36.078Z,60.17
2017-02-04T03:12:16.841Z,60.65
2017-02-04T03:12:57.545Z,60.65
2017-02-04T03:13:38.156Z,60.65
2017-02-04T03:14:18.861Z,60.65
2017-02-04T03:14:59.515Z,60.55
2017-02-04T03:15:40.167Z,60.46
2017-02-04T03:16:20.894Z,61.04
2017-02-04T03:17:01.548Z,61.04
2017-02-04T03:17:42.193Z,60.75
2017-02-04T03:18:22.908Z,60.75
2017-02-04T03:19:03.556Z,60.94
2017-02-04T03:19:44.205Z,60.84
2017-02-04T03:20:24.862Z,60.94
2017-02-04T03:21:05.536Z,61.42
2017-02-04T03:21:46.204Z,61.04
2017-02-04T03:22:26.843Z,61.22
2017-02-04T03:23:07.565Z,61.04
2017-02-04T03:23:48.315Z,61.13
2017-02-04T03:24:28.962Z,61.13
2017-02-04T03:25:09.611Z,61.04
2017-02-04T03:25:51.023Z,61.04
2017-02-04T03:26:31.686Z,61.22
2017-02-04T03:27:12.443Z,61.13
2017-02-04T03:27:53.100Z,61.04
2017-02-04T03:28:33.797Z,61.13
2017-02-04T03:29:14.458Z,60.84
2017-02-04T03:29:55.201Z,61.04
2017-02-04T03:30:35.856Z,61.13
2017-02-04T03:31:16.616Z,61.13
2017-02-04T03:31:57.267Z,60.94
2017-02-04T03:32:37.995Z,61.04
2017-02-04T03:33:18.572Z,61.04
2017-02-04T03:33:59.262Z,61.04
2017-02-04T03:34:39.959Z,61.52
2017-02-04T03:35:20.637Z,62
2017-02-04T03:36:01.284Z,62
2017-02-04T03:36:42.027Z,61.22
2017-02-04T03:37:22.684Z,61.22
2017-02-04T03:38:03.337Z,61.52
2017-02-04T03:38:44.072Z,61.22
2017-02-04T03:39:24.769Z,61.52
2017-02-04T03:40:05.421Z,60.75
2017-02-04T03:40:46.080Z,61.9
2017-02-04T03:41:26.722Z,61.9
2017-02-04T03:42:07.377Z,61.52
2017-02-04T03:42:48.024Z,61.42
2017-02-04T03:43:28.782Z,61.71
2017-02-04T03:44:09.435Z,61.42
2017-02-04T03:44:50.088Z,60.94
2017-02-04T03:45:30.733Z,61.52
2017-02-04T03:46:11.476Z,61.22
2017-02-04T03:46:52.143Z,61.04
2017-02-04T03:47:32.800Z,61.04
2017-02-04T03:48:13.449Z,60.84
2017-02-04T03:48:54.108Z,61.04
2017-02-04T03:49:34.839Z,61.52
2017-02-04T03:50:15.496Z,61.8
2017-02-04T03:50:56.146Z,62
2017-02-04T03:51:36.851Z,61.61
2017-02-04T03:52:17.587Z,61.71
2017-02-04T03:52:58.249Z,61.9
2017-02-04T03:53:38.910Z,61.71
2017-02-04T03:54:19.616Z,61.71
2017-02-04T03:55:01.153Z,61.8
2017-02-04T03:55:41.811Z,61.61
2017-02-04T03:56:22.579Z,61.71
2017-02-04T03:57:03.366Z,61.71
2017-02-04T03:57:44.053Z,61.8
2017-02-04T03:58:24.709Z,61.8
2017-02-04T03:59:05.459Z,61.71
2017-02-04T03:59:46.116Z,61.61
2017-02-04T04:00:26.780Z,61.8
2017-02-04T04:01:07.483Z,61.61
2017-02-04T04:01:48.777Z,61.52
2017-02-04T04:02:29.480Z,61.71
2017-02-04T04:03:10.255Z,61.52
2017-02-04T04:03:51.685Z,61.52
2017-02-04T04:04:32.358Z,61.71
2017-02-04T04:05:13.036Z,61.8
2017-02-04T04:05:53.770Z,61.61
2017-02-04T04:06:34.427Z,61.32
2017-02-04T04:07:15.080Z,61.8
2017-02-04T04:07:56.677Z,62.09
2017-02-04T04:08:37.322Z,61.42
2017-02-04T04:09:17.981Z,61.77
2017-02-04T04:09:58.707Z,61.71
2017-02-04T04:10:39.365Z,61.61
2017-02-04T04:11:20.043Z,61.42
2017-02-04T04:12:00.749Z,61.42
2017-02-04T04:12:41.448Z,61.9
2017-02-04T04:13:22.125Z,61.52
2017-02-04T04:14:02.776Z,61.71
2017-02-04T04:14:43.505Z,61.32
2017-02-04T04:15:24.148Z,61.42
2017-02-04T04:16:04.800Z,61.61
2017-02-04T04:16:45.477Z,61.71
2017-02-04T04:17:26.132Z,61.71
2017-02-04T04:18:06.777Z,61.52
2017-02-04T04:18:47.494Z,62
2017-02-04T04:19:28.268Z,61.42
2017-02-04T04:20:08.886Z,61.42
2017-02-04T04:20:49.628Z,61.71
2017-02-04T04:21:30.304Z,62.09
2017-02-04T04:22:11.000Z,62.09
2017-02-04T04:22:51.611Z,61.8
2017-02-04T04:23:32.345Z,62.09
2017-02-04T04:24:12.992Z,62
2017-02-04T04:24:53.672Z,62.29
2017-02-04T04:25:34.326Z,61.9
2017-02-04T04:26:14.983Z,62
2017-02-04T04:26:55.632Z,62.09
2017-02-04T04:27:36.409Z,61.9
2017-02-04T04:28:17.064Z,62.19
2017-02-04T04:28:57.799Z,62
2017-02-04T04:29:38.485Z,61.61
2017-02-04T04:30:19.184Z,61.9
2017-02-04T04:30:59.887Z,62
2017-02-04T04:31:40.536Z,61.8
2017-02-04T04:32:21.187Z,61.9
2017-02-04T04:33:01.941Z,61.9
2017-02-04T04:33:42.643Z,62.19
2017-02-04T04:34:23.310Z,62.19
2017-02-04T04:35:04.024Z,61.8
2017-02-04T04:35:44.681Z,61.9
2017-02-04T04:36:25.339Z,61.71
2017-02-04T04:37:06.029Z,62.19
2017-02-04T04:37:46.681Z,61.9
2017-02-04T04:38:27.327Z,62
2017-02-04T04:39:08.001Z,62.09
2017-02-04T04:39:48.794Z,62
2017-02-04T04:40:29.474Z,62
2017-02-04T04:41:10.165Z,62.09
2017-02-04T04:41:50.869Z,61.9
2017-02-04T04:42:31.614Z,62
2017-02-04T04:43:12.304Z,62
2017-02-04T04:43:52.980Z,62.09
2017-02-04T04:44:33.614Z,61.8
2017-02-04T04:45:14.272Z,61.9
2017-02-04T04:45:54.963Z,61.9
2017-02-04T04:46:35.613Z,62.29
2017-02-04T04:47:16.328Z,61.9
2017-02-04T04:47:56.974Z,62
2017-02-04T04:48:37.634Z,61.8
2017-02-04T04:49:18.311Z,62.19
2017-02-04T04:49:58.964Z,62.29
2017-02-04T04:50:39.610Z,62.09
2017-02-04T04:51:20.296Z,62.29
2017-02-04T04:52:00.946Z,62.19
2017-02-04T04:52:41.592Z,62.29
2017-02-04T04:53:22.257Z,61.9
2017-02-04T04:54:02.944Z,61.8
2017-02-04T04:54:43.606Z,62.19
2017-02-04T04:55:24.292Z,61.8
2017-02-04T04:56:05.009Z,62.19
2017-02-04T04:56:45.697Z,62.19
2017-02-04T04:57:26.352Z,61.9
2017-02-04T04:58:07.079Z,62.19
2017-02-04T04:58:47.756Z,62.29
2017-02-04T04:59:28.416Z,62.19
2017-02-04T05:00:09.096Z,62.38
2017-02-04T05:00:49.780Z,62.19
2017-02-04T05:01:30.454Z,62.38
2017-02-04T05:02:11.104Z,62.38
2017-02-04T05:02:51.813Z,62.19
2017-02-04T05:03:32.486Z,62.09
2017-02-04T05:04:13.142Z,62.38
2017-02-04T05:04:53.815Z,62.48
2017-02-04T05:05:34.554Z,62.19
2017-02-04T05:06:15.224Z,62.38
2017-02-04T05:06:55.883Z,62.19
2017-02-04T05:07:36.538Z,62.19
2017-02-04T05:08:17.238Z,62.19
2017-02-04T05:08:57.890Z,62.29
2017-02-04T05:09:38.558Z,62.19
2017-02-04T05:10:19.224Z,62.29
2017-02-04T05:10:59.875Z,62.09
2017-02-04T05:11:40.525Z,62.06
2017-02-04T05:12:21.182Z,61.87
2017-02-04T05:13:01.837Z,62.29
2017-02-04T05:13:42.494Z,62.29
2017-02-04T05:14:23.180Z,62.29
2017-02-04T05:15:03.856Z,62.26
2017-02-04T05:15:44.498Z,62
2017-02-04T05:16:25.150Z,62.29
2017-02-04T05:17:05.801Z,62.19
2017-02-04T05:17:46.462Z,62.29
2017-02-04T05:18:27.134Z,62.26
2017-02-04T05:19:07.858Z,62.16
2017-02-04T05:19:48.518Z,62.19
2017-02-04T05:20:29.211Z,62.38
2017-02-04T05:21:09.916Z,62.29
2017-02-04T05:21:50.581Z,62.29
2017-02-04T05:22:31.233Z,62.26
2017-02-04T05:23:11.882Z,62.26
2017-02-04T05:23:52.622Z,62.29
2017-02-04T05:24:33.292Z,62.45
2017-02-04T05:25:13.962Z,62.29
2017-02-04T05:25:54.700Z,61.8
2017-02-04T05:26:35.457Z,62.09
2017-02-04T05:27:16.039Z,61.8
2017-02-04T05:27:56.734Z,62.29
2017-02-04T05:28:38.066Z,61.9
2017-02-04T05:29:18.781Z,61.8
2017-02-04T05:29:59.439Z,61.8
2017-02-04T05:30:40.115Z,61.8
2017-02-04T05:31:20.879Z,61.9
2017-02-04T05:32:01.602Z,62
2017-02-04T05:32:42.258Z,62.26
2017-02-04T05:33:22.913Z,62.16
2017-02-04T05:34:03.644Z,62.26
2017-02-04T05:34:44.379Z,62.19
2017-02-04T05:35:25.026Z,61.9
2017-02-04T05:36:05.735Z,61.9
2017-02-04T05:36:46.501Z,61.8
2017-02-04T05:37:27.229Z,61.9
2017-02-04T05:38:07.924Z,62
2017-02-04T05:38:48.580Z,62
2017-02-04T05:39:29.249Z,62
2017-02-04T05:40:09.972Z,62.09
2017-02-04T05:40:50.636Z,61.8
2017-02-04T05:41:31.285Z,62.26
2017-02-04T05:42:12.020Z,62.29
2017-02-04T05:42:52.668Z,61.9
2017-02-04T05:43:33.395Z,62
2017-02-04T05:44:14.131Z,61.97
2017-02-04T05:44:54.849Z,61.8
2017-02-04T05:45:35.512Z,61.9
2017-02-04T05:46:16.289Z,62
2017-02-04T05:46:57.827Z,62.19
2017-02-04T05:47:38.505Z,62
2017-02-04T05:48:19.157Z,62
2017-02-04T05:48:59.915Z,62
2017-02-04T05:49:40.583Z,61.71
2017-02-04T05:50:21.309Z,62
2017-02-04T05:51:01.971Z,61.71
2017-02-04T05:51:42.663Z,61.9
2017-02-04T05:52:23.324Z,61.87
2017-02-04T05:53:04.050Z,61.87
2017-02-04T05:53:44.781Z,61.8
2017-02-04T05:54:25.439Z,62.29
2017-02-04T05:55:06.089Z,61.77
2017-02-04T05:55:46.789Z,62.06
2017-02-04T05:56:27.468Z,62.19
2017-02-04T05:57:08.148Z,61.9
2017-02-04T05:57:48.834Z,62.26
2017-02-04T05:58:29.583Z,62.29
2017-02-04T05:59:10.289Z,61.8
2017-02-04T05:59:50.925Z,61.9
2017-02-04T06:00:31.617Z,62
2017-02-04T06:01:12.285Z,61.87
2017-02-04T06:01:52.927Z,61.97
2017-02-04T06:02:33.639Z,62.06
2017-02-04T06:03:14.328Z,62.38
2017-02-04T06:03:55.045Z,62.29
2017-02-04T06:04:35.713Z,62.19
2017-02-04T06:05:16.393Z,61.97
2017-02-04T06:05:57.153Z,62
2017-02-04T06:06:37.802Z,61.97
2017-02-04T06:07:18.496Z,62.06
2017-02-04T06:07:59.159Z,61.8
2017-02-04T06:08:39.918Z,61.71
2017-02-04T06:09:20.570Z,61.8
2017-02-04T06:10:01.249Z,61.8
2017-02-04T06:10:41.964Z,62.06
2017-02-04T06:11:22.613Z,61.9
2017-02-04T06:12:03.266Z,61.87
2017-02-04T06:12:43.965Z,61.77
2017-02-04T06:13:24.670Z,61.9
2017-02-04T06:14:05.348Z,61.87
2017-02-04T06:14:46.024Z,61.9
2017-02-04T06:15:26.767Z,61.8
2017-02-04T06:16:07.506Z,62.26
2017-02-04T06:16:48.093Z,62.16
2017-02-04T06:17:28.791Z,61.77
2017-02-04T06:18:09.538Z,62
2017-02-04T06:18:50.229Z,61.9
2017-02-04T06:19:30.895Z,62.26
2017-02-04T06:20:11.602Z,61.87
2017-02-04T06:20:52.265Z,62
2017-02-04T06:21:32.915Z,61.8
2017-02-04T06:22:13.576Z,61.8
2017-02-04T06:22:54.338Z,61.8
2017-02-04T06:23:34.983Z,61.87
2017-02-04T06:24:15.631Z,62.06
2017-02-04T06:24:56.324Z,61.8
2017-02-04T06:25:36.974Z,61.87
2017-02-04T06:26:17.758Z,61.87
2017-02-04T06:26:58.464Z,61.52
2017-02-04T06:27:39.127Z,61.71
2017-02-04T06:28:19.781Z,62.09
2017-02-04T06:29:00.492Z,61.42
2017-02-04T06:29:41.170Z,61.71
2017-02-04T06:30:21.822Z,62.16
2017-02-04T06:31:02.477Z,61.97
2017-02-04T06:31:43.228Z,61.9
2017-02-04T06:32:23.905Z,61.8
2017-02-04T06:33:04.583Z,61.97
2017-02-04T06:33:45.240Z,62.09
2017-02-04T06:34:25.910Z,62.09
2017-02-04T06:35:06.569Z,61.71
2017-02-04T06:35:47.280Z,61.77
2017-02-04T06:36:28.043Z,62.06
2017-02-04T06:37:08.710Z,61.97
2017-02-04T06:37:49.366Z,62.16
2017-02-04T06:38:30.048Z,61.87
2017-02-04T06:39:10.735Z,61.87
2017-02-04T06:39:51.382Z,62.06
2017-02-04T06:40:32.136Z,61.87
2017-02-04T06:41:12.878Z,61.8
2017-02-04T06:41:53.527Z,61.77
2017-02-04T06:42:34.191Z,61.87
2017-02-04T06:43:14.931Z,61.58
2017-02-04T06:43:55.658Z,61.58
2017-02-04T06:44:36.387Z,61.8
2017-02-04T06:45:16.959Z,61.49
2017-02-04T06:45:57.666Z,61.58
2017-02-04T06:46:38.315Z,61.61
2017-02-04T06:47:18.966Z,61.61
2017-02-04T06:47:59.615Z,61.9
2017-02-04T06:48:40.308Z,61.71
2017-02-04T06:49:20.952Z,61.68
2017-02-04T06:50:01.671Z,61.61
2017-02-04T06:50:42.346Z,61.71
2017-02-04T06:51:22.991Z,61.61
2017-02-04T06:52:03.667Z,61.9
2017-02-04T06:52:44.355Z,61.8
2017-02-04T06:53:25.076Z,61.58
2017-02-04T06:54:05.735Z,61.77
2017-02-04T06:54:46.412Z,61.71
2017-02-04T06:55:27.139Z,61.71
2017-02-04T06:56:07.911Z,61.68
2017-02-04T06:56:48.448Z,61.77
2017-02-04T06:57:29.113Z,61.71
2017-02-04T06:58:09.798Z,61.71
2017-02-04T06:58:50.481Z,61.58
2017-02-04T06:59:31.269Z,61.58
2017-02-04T07:00:11.941Z,61.68
2017-02-04T07:00:52.590Z,61.52
2017-02-04T07:01:33.250Z,61.42
2017-02-04T07:02:13.983Z,62.06
2017-02-04T07:02:54.628Z,61.8
2017-02-04T07:03:35.302Z,61.39
2017-02-04T07:04:15.960Z,61.77
2017-02-04T07:04:56.648Z,61.71
2017-02-04T07:05:37.296Z,61.8
2017-02-04T07:06:18.001Z,61.71
2017-02-04T07:06:58.670Z,61.77
2017-02-04T07:07:39.352Z,61.68
2017-02-04T07:08:20.032Z,61.39
2017-02-04T07:09:00.693Z,62.06
2017-02-04T07:09:41.429Z,61.8
2017-02-04T07:10:22.092Z,61.68
2017-02-04T07:11:02.752Z,61.61
2017-02-04T07:11:43.471Z,61.71
2017-02-04T07:12:24.138Z,62.16
2017-02-04T07:13:04.790Z,61.39
2017-02-04T07:13:45.433Z,61.58
2017-02-04T07:14:26.094Z,62.09
2017-02-04T07:15:06.743Z,61.9
2017-02-04T07:15:47.437Z,62.06
2017-02-04T07:16:28.103Z,61.77
2017-02-04T07:17:08.774Z,61.68
2017-02-04T07:17:49.466Z,61.8
2017-02-04T07:18:30.194Z,61.97
2017-02-04T07:19:10.844Z,62.09
2017-02-04T07:19:51.553Z,61.77
2017-02-04T07:20:32.301Z,61.52
2017-02-04T07:21:12.990Z,61.61
2017-02-04T07:21:53.684Z,61.68
2017-02-04T07:22:34.481Z,61.71
2017-02-04T07:23:15.141Z,61.87
2017-02-04T07:23:55.869Z,61.42
2017-02-04T07:24:36.541Z,61.77
2017-02-04T07:25:17.179Z,61.9
2017-02-04T07:25:57.960Z,61.71
2017-02-04T07:26:38.621Z,61.8
2017-02-04T07:27:19.293Z,62
2017-02-04T07:27:59.951Z,61.87
2017-02-04T07:28:40.608Z,61.9
2017-02-04T07:29:21.263Z,62.26
2017-02-04T07:30:01.982Z,62.19
2017-02-04T07:30:42.631Z,62.16
2017-02-04T07:31:23.299Z,62.35
2017-02-04T07:32:03.997Z,61.87
2017-02-04T07:32:44.643Z,62.35
2017-02-04T07:33:25.299Z,62.35
2017-02-04T07:34:06.001Z,62.35
2017-02-04T07:34:46.754Z,62.35
2017-02-04T07:35:27.413Z,62.26
2017-02-04T07:36:08.063Z,62.06
2017-02-04T07:36:48.752Z,62.35
2017-02-04T07:37:29.404Z,62.26
2017-02-04T07:38:10.056Z,62.35
2017-02-04T07:38:50.761Z,62.45
2017-02-04T07:39:31.410Z,62.26
2017-02-04T07:40:12.073Z,62.45
2017-02-04T07:40:52.793Z,62.38
2017-02-04T07:41:33.451Z,62.06
2017-02-04T07:42:14.124Z,62.19
2017-02-04T07:42:54.776Z,62.16
2017-02-04T07:43:35.499Z,62.26
2017-02-04T07:44:16.242Z,61.77
2017-02-04T07:44:56.922Z,62.19
2017-02-04T07:45:37.569Z,62.16
2017-02-04T07:46:18.249Z,62.26
2017-02-04T07:46:58.907Z,62.09
2017-02-04T07:47:39.562Z,61.87
2017-02-04T07:48:20.363Z,62.16
2017-02-04T07:49:01.057Z,62.35
2017-02-04T07:49:41.734Z,62.19
2017-02-04T07:50:22.384Z,61.9
2017-02-04T07:51:03.059Z,61.87
2017-02-04T07:51:43.737Z,61.77
2017-02-04T07:52:24.385Z,62.26
2017-02-04T07:53:05.038Z,61.97
2017-02-04T07:53:45.851Z,61.9
2017-02-04T07:54:26.621Z,61.87
2017-02-04T07:55:07.197Z,62.06
2017-02-04T07:55:47.871Z,61.68
2017-02-04T07:56:28.574Z,61.58
2017-02-04T07:57:09.240Z,62
2017-02-04T07:57:49.886Z,61.97
2017-02-04T07:58:30.623Z,61.77
2017-02-04T07:59:11.277Z,61.77
2017-02-04T07:59:52.032Z,61.97
2017-02-04T08:00:32.682Z,62.06
2017-02-04T08:01:13.370Z,61.9
2017-02-04T08:01:54.040Z,62.26
2017-02-04T08:02:34.689Z,61.77
2017-02-04T08:03:15.421Z,61.87
2017-02-04T08:03:56.067Z,61.87
2017-02-04T08:04:37.635Z,61.87
2017-02-04T08:05:18.351Z,61.9
2017-02-04T08:05:59.001Z,61.87
2017-02-04T08:06:40.532Z,61.9
2017-02-04T08:07:20.470Z,61.87
2017-02-04T08:08:01.144Z,61.58
2017-02-04T08:08:41.800Z,62.19
2017-02-04T08:09:22.530Z,61.68
2017-02-04T08:10:03.195Z,62.16
2017-02-04T08:10:43.844Z,61.77
2017-02-04T08:11:24.545Z,61.77
2017-02-04T08:12:05.279Z,61.87
2017-02-04T08:12:45.954Z,61.42
2017-02-04T08:13:26.596Z,61.68
2017-02-04T08:14:07.326Z,61.68
2017-02-04T08:14:48.093Z,61.39
2017-02-04T08:15:28.759Z,61.49
2017-02-04T08:16:09.424Z,61.71
2017-02-04T08:16:50.156Z,61.29
2017-02-04T08:17:30.919Z,61.8
2017-02-04T08:18:11.581Z,62.19
2017-02-04T08:18:52.234Z,61.87
2017-02-04T08:19:32.947Z,61.9
2017-02-04T08:20:13.621Z,61.77
2017-02-04T08:20:54.291Z,61.68
2017-02-04T08:21:34.994Z,61.68
2017-02-04T08:22:15.657Z,61.52
2017-02-04T08:22:56.309Z,61.39
2017-02-04T08:23:37.015Z,61.77
2017-02-04T08:24:17.714Z,61.71
2017-02-04T08:24:58.360Z,61.39
2017-02-04T08:25:39.029Z,61.68
2017-02-04T08:26:19.759Z,61.68
2017-02-04T08:27:00.409Z,61.71
2017-02-04T08:27:41.094Z,62
2017-02-04T08:28:21.893Z,61.49
2017-02-04T08:29:02.559Z,61.61
2017-02-04T08:29:43.252Z,61.58
2017-02-04T08:30:23.901Z,61.58
2017-02-04T08:31:04.593Z,61.58
2017-02-04T08:31:45.322Z,61.77
2017-02-04T08:32:25.975Z,61.61
2017-02-04T08:33:06.650Z,61.77
2017-02-04T08:33:47.328Z,61.77
2017-02-04T08:34:27.976Z,61.68
2017-02-04T08:35:08.650Z,61.71
2017-02-04T08:35:49.319Z,61.77
2017-02-04T08:36:29.975Z,61.9
2017-02-04T08:37:10.642Z,61.52
2017-02-04T08:37:51.320Z,61.68
2017-02-04T08:38:32.060Z,61.71
2017-02-04T08:39:12.689Z,61.68
2017-02-04T08:39:53.449Z,61.61
2017-02-04T08:40:34.109Z,61.49
2017-02-04T08:41:14.765Z,61.58
2017-02-04T08:41:55.416Z,61.68
2017-02-04T08:42:36.070Z,61.8
2017-02-04T08:43:16.720Z,61.71
2017-02-04T08:43:57.376Z,61.61
2017-02-04T08:44:38.052Z,61.58
2017-02-04T08:45:18.825Z,61.71
2017-02-04T08:45:59.578Z,61.68
2017-02-04T08:46:40.166Z,61.9
2017-02-04T08:47:20.820Z,61.68
2017-02-04T08:48:01.524Z,61.68